createdAt,value
2017-03-31T00:00:53.386Z,15.31
2017-03-31T00:01:53.413Z,15.28
2017-03-31T00:02:53.430Z,15.28
2017-03-31T00:03:53.451Z,15.27
2017-03-31T00:04:53.466Z,15.19
2017-03-31T00:05:53.478Z,15.33
2017-03-31T00:06:53.527Z,15.18
2017-03-31T00:07:53.517Z,15.25
2017-03-31T00:08:53.542Z,15.22
2017-03-31T00:09:53.243Z,15.21
2017-03-31T00:10:53.267Z,15.24
2017-03-31T00:11:53.293Z,15.19
2017-03-31T00:12:53.617Z,15.06
2017-03-31T00:13:53.326Z,15.18
2017-03-31T00:14:53.359Z,15.18
2017-03-31T00:15:53.366Z,15.1
2017-03-31T00:19:05.014Z,15.02
2017-03-31T00:20:05.031Z,15.06
2017-03-31T00:21:05.045Z,15.03
2017-03-31T00:22:05.068Z,15.06
2017-03-31T00:23:05.086Z,15.02
2017-03-31T00:24:05.116Z,15.06
2017-03-31T00:25:04.839Z,15.04
2017-03-31T00:26:05.151Z,14.96
2017-03-31T00:27:05.164Z,15.03
2017-03-31T00:28:05.183Z,14.94
2017-03-31T00:29:05.201Z,14.85
2017-03-31T00:30:05.010Z,14.99
2017-03-31T00:31:05.240Z,14.91
2017-03-31T00:32:05.267Z,14.91
2017-03-31T00:33:05.282Z,14.94
2017-03-31T00:34:05.312Z,14.91
2017-03-31T00:35:05.324Z,14.89
2017-03-31T00:36:05.344Z,14.96
2017-03-31T00:37:05.361Z,14.89
2017-03-31T00:38:05.386Z,14.86
2017-03-31T00:39:05.403Z,14.81
2017-03-31T00:40:05.443Z,14.81
2017-03-31T00:41:05.441Z,14.85
2017-03-31T00:42:05.467Z,14.77
2017-03-31T00:43:05.480Z,14.78
2017-03-31T00:44:05.496Z,14.85
2017-03-31T00:45:05.205Z,14.84
2017-03-31T00:46:05.260Z,14.78
2017-03-31T00:47:05.553Z,14.84
2017-03-31T00:48:05.271Z,14.79
2017-03-31T00:49:05.599Z,14.77
2017-03-31T00:50:05.630Z,14.79
2017-03-31T00:51:05.634Z,14.79
2017-03-31T00:52:05.657Z,14.73
2017-03-31T00:53:05.744Z,14.73
2017-03-31T00:54:05.399Z,14.72
2017-03-31T00:55:05.406Z,14.77
2017-03-31T00:56:05.505Z,14.72
2017-03-31T00:57:05.754Z,14.69
2017-03-31T00:58:06.002Z,14.7
2017-03-31T00:59:05.806Z,14.65
2017-03-31T01:00:05.496Z,14.68
2017-03-31T01:01:05.829Z,14.63
2017-03-31T01:02:05.553Z,14.68
2017-03-31T01:03:05.884Z,14.68
2017-03-31T01:04:05.895Z,14.65
2017-03-31T01:05:05.904Z,14.63
2017-03-31T01:06:05.920Z,14.68
2017-03-31T01:07:05.979Z,14.53
2017-03-31T01:08:05.987Z,14.66
2017-03-31T01:09:06.025Z,14.5
2017-03-31T01:10:05.738Z,14.58
2017-03-31T01:11:06.021Z,14.58
2017-03-31T01:12:05.735Z,14.54
2017-03-31T01:13:06.060Z,14.51
2017-03-31T01:14:06.086Z,14.51
2017-03-31T01:15:05.784Z,14.48
2017-03-31T01:16:06.158Z,14.53
2017-03-31T01:17:06.136Z,14.53
2017-03-31T01:18:06.165Z,14.53
2017-03-31T01:19:06.173Z,14.45
2017-03-31T01:20:06.193Z,14.41
2017-03-31T01:21:06.213Z,14.5
2017-03-31T01:22:06.234Z,14.43
2017-03-31T01:23:06.252Z,14.4
2017-03-31T01:24:05.977Z,14.47
2017-03-31T01:25:05.972Z,14.41
2017-03-31T01:26:06.309Z,14.48
2017-03-31T01:27:06.331Z,14.41
2017-03-31T01:28:06.349Z,14.4
2017-03-31T01:29:06.370Z,14.35
2017-03-31T01:30:06.470Z,14.36
2017-03-31T01:31:06.480Z,14.33
2017-03-31T01:32:06.503Z,14.36
2017-03-31T01:33:06.512Z,14.36
2017-03-31T01:34:06.522Z,14.32
2017-03-31T01:35:06.555Z,14.35
2017-03-31T01:36:06.649Z,14.28
2017-03-31T01:37:06.542Z,14.35
2017-03-31T01:38:06.558Z,14.35
2017-03-31T01:39:06.558Z,14.22
2017-03-31T01:40:06.574Z,14.26
2017-03-31T01:41:06.288Z,14.28
2017-03-31T01:42:06.613Z,14.25
2017-03-31T01:43:06.642Z,14.29
2017-03-31T01:44:06.654Z,14.28
2017-03-31T01:45:06.678Z,14.2
2017-03-31T01:46:06.702Z,14.23
2017-03-31T01:47:06.397Z,14.2
2017-03-31T01:48:06.820Z,14.28
2017-03-31T01:49:06.834Z,14.23
2017-03-31T01:50:06.805Z,14.23
2017-03-31T01:51:06.790Z,14.14
2017-03-31T01:52:06.841Z,14.23
2017-03-31T01:53:06.824Z,14.1
2017-03-31T01:54:06.849Z,14.22
2017-03-31T01:55:06.867Z,14.18
2017-03-31T01:56:06.889Z,14.17
2017-03-31T01:57:06.901Z,14.14
2017-03-31T01:58:06.607Z,14.1
2017-03-31T01:59:07.040Z,14.22
2017-03-31T02:00:06.960Z,14.07
2017-03-31T02:01:06.980Z,14.14
2017-03-31T02:02:06.998Z,14.17
2017-03-31T02:03:07.015Z,14.11
2017-03-31T02:04:07.035Z,14.12
2017-03-31T02:05:07.058Z,14.15
2017-03-31T02:06:07.072Z,14.15
2017-03-31T02:07:07.144Z,14.07
2017-03-31T02:08:07.112Z,14.07
2017-03-31T02:09:07.137Z,14.11
2017-03-31T02:10:07.152Z,14.07
2017-03-31T02:11:07.171Z,14.1
2017-03-31T02:12:07.188Z,14.05
2017-03-31T02:13:07.203Z,14
2017-03-31T02:14:07.347Z,14.04
2017-03-31T02:15:07.355Z,13.99
2017-03-31T02:16:06.984Z,14.07
2017-03-31T02:17:07.385Z,14
2017-03-31T02:18:07.422Z,14.07
2017-03-31T02:19:07.403Z,14.03
2017-03-31T02:20:07.413Z,13.9
2017-03-31T02:21:07.421Z,14
2017-03-31T02:22:07.419Z,13.9
2017-03-31T02:23:07.428Z,13.97
2017-03-31T02:24:07.497Z,13.95
2017-03-31T02:25:07.506Z,13.95
2017-03-31T02:26:07.137Z,13.9
2017-03-31T02:27:07.514Z,13.86
2017-03-31T02:28:07.495Z,13.89
2017-03-31T02:29:07.310Z,13.96
2017-03-31T02:30:07.651Z,13.9
2017-03-31T02:31:07.638Z,13.86
2017-03-31T02:32:07.659Z,13.86
2017-03-31T02:33:07.675Z,13.86
2017-03-31T02:34:07.378Z,13.83
2017-03-31T02:35:07.744Z,13.95
2017-03-31T02:36:07.872Z,13.92
2017-03-31T02:37:07.917Z,13.87
2017-03-31T02:38:07.785Z,13.78
2017-03-31T02:39:07.794Z,13.78
2017-03-31T02:40:07.926Z,13.81
2017-03-31T02:41:07.535Z,13.77
2017-03-31T02:42:07.988Z,13.75
2017-03-31T02:43:07.951Z,13.79
2017-03-31T02:44:07.968Z,13.79
2017-03-31T02:45:07.980Z,13.81
2017-03-31T02:46:07.633Z,13.81
2017-03-31T02:47:08.022Z,13.79
2017-03-31T02:48:07.991Z,13.81
2017-03-31T02:49:08.005Z,13.79
2017-03-31T02:50:07.968Z,13.74
2017-03-31T02:51:07.973Z,13.78
2017-03-31T02:52:08.038Z,13.68
2017-03-31T02:53:08.082Z,13.7
2017-03-31T02:54:07.994Z,13.7
2017-03-31T02:55:07.997Z,13.62
2017-03-31T02:56:08.006Z,13.68
2017-03-31T02:57:07.918Z,13.7
2017-03-31T02:58:08.048Z,13.7
2017-03-31T02:59:08.069Z,13.63
2017-03-31T03:00:08.088Z,13.62
2017-03-31T03:01:08.222Z,13.62
2017-03-31T03:02:08.118Z,13.63
2017-03-31T03:03:08.139Z,13.62
2017-03-31T03:04:08.154Z,13.65
2017-03-31T03:05:08.181Z,13.59
2017-03-31T03:06:08.193Z,13.63
2017-03-31T03:07:07.983Z,13.57
2017-03-31T03:08:08.232Z,13.62
2017-03-31T03:09:08.247Z,13.53
2017-03-31T03:10:08.271Z,13.53
2017-03-31T03:11:08.289Z,13.56
2017-03-31T03:12:08.121Z,13.47
2017-03-31T03:13:08.323Z,13.53
2017-03-31T03:14:08.344Z,13.5
2017-03-31T03:15:08.363Z,13.53
2017-03-31T03:16:08.418Z,13.53
2017-03-31T03:17:08.088Z,13.52
2017-03-31T03:18:08.416Z,13.5
2017-03-31T03:19:08.434Z,13.47
2017-03-31T03:20:08.455Z,13.49
2017-03-31T03:21:08.168Z,13.5
2017-03-31T03:22:08.494Z,13.39
2017-03-31T03:23:08.512Z,13.41
2017-03-31T03:24:08.570Z,13.44
2017-03-31T03:25:08.547Z,13.44
2017-03-31T03:26:08.568Z,13.42
2017-03-31T03:27:08.584Z,13.35
2017-03-31T03:28:08.606Z,13.31
2017-03-31T03:29:08.620Z,13.38
2017-03-31T03:30:08.326Z,13.33
2017-03-31T03:31:08.668Z,13.38
2017-03-31T03:32:08.674Z,13.37
2017-03-31T03:33:08.694Z,13.33
2017-03-31T03:34:08.711Z,13.33
2017-03-31T03:35:08.729Z,13.33
2017-03-31T03:36:08.757Z,13.31
2017-03-31T03:37:08.762Z,13.25
2017-03-31T03:38:08.787Z,13.33
2017-03-31T03:39:08.799Z,13.28
2017-03-31T03:40:08.822Z,13.25
2017-03-31T03:41:08.836Z,13.37
2017-03-31T03:42:08.857Z,13.3
2017-03-31T03:43:08.885Z,13.23
2017-03-31T03:44:08.587Z,13.33
2017-03-31T03:45:08.919Z,13.22
2017-03-31T03:46:08.619Z,13.2
2017-03-31T03:47:09.060Z,13.2
2017-03-31T03:48:08.976Z,13.2
2017-03-31T03:49:08.987Z,13.25
2017-03-31T03:50:09.008Z,13.16
2017-03-31T03:51:09.019Z,13.2
2017-03-31T03:52:09.039Z,13.22
2017-03-31T03:53:08.764Z,13.18
2017-03-31T03:54:09.080Z,13.22
2017-03-31T03:55:09.103Z,13.16
2017-03-31T03:56:09.198Z,13.19
2017-03-31T03:57:09.206Z,13.19
2017-03-31T03:58:09.215Z,13.19
2017-03-31T03:59:09.216Z,13.16
2017-03-31T04:00:09.282Z,13.19
2017-03-31T04:01:09.294Z,13.04
2017-03-31T04:02:08.911Z,13.15
2017-03-31T04:03:09.299Z,13.15
2017-03-31T04:04:09.308Z,13.05
2017-03-31T04:05:09.317Z,13.03
2017-03-31T04:06:09.518Z,13.15
2017-03-31T04:07:09.335Z,13.09
2017-03-31T04:08:09.472Z,13.08
2017-03-31T04:09:09.446Z,13.09
2017-03-31T04:10:09.167Z,13.13
2017-03-31T04:11:09.476Z,13.04
2017-03-31T04:12:09.485Z,13.05
2017-03-31T04:13:09.424Z,13.09
2017-03-31T04:14:09.437Z,13.09
2017-03-31T04:15:09.455Z,13.05
2017-03-31T04:16:09.479Z,13.12
2017-03-31T04:17:09.499Z,13
2017-03-31T04:18:09.553Z,13.04
2017-03-31T04:19:09.530Z,13.04
2017-03-31T04:20:09.557Z,13.03
2017-03-31T04:21:09.568Z,13.04
2017-03-31T04:22:09.589Z,12.98
2017-03-31T04:23:09.604Z,12.94
2017-03-31T04:24:09.621Z,13.04
2017-03-31T04:25:09.637Z,12.93
2017-03-31T04:26:09.659Z,13.08
2017-03-31T04:27:09.675Z,13.03
2017-03-31T04:28:09.694Z,13.01
2017-03-31T04:29:09.404Z,13
2017-03-31T04:30:09.736Z,12.95
2017-03-31T04:31:09.746Z,12.97
2017-03-31T04:32:09.771Z,12.94
2017-03-31T04:33:09.784Z,12.91
2017-03-31T04:34:09.803Z,12.94
2017-03-31T04:35:09.841Z,12.9
2017-03-31T04:36:09.848Z,12.95
2017-03-31T04:37:09.858Z,12.97
2017-03-31T04:38:09.882Z,12.9
2017-03-31T04:39:09.896Z,12.93
2017-03-31T04:40:09.912Z,12.94
2017-03-31T04:41:09.926Z,12.94
2017-03-31T04:42:09.938Z,12.94
2017-03-31T04:43:09.968Z,12.93
2017-03-31T04:44:09.980Z,12.91
2017-03-31T04:45:09.687Z,12.9
2017-03-31T04:46:09.707Z,12.87
2017-03-31T04:47:10.037Z,12.87
2017-03-31T04:48:10.054Z,12.85
2017-03-31T04:49:10.073Z,12.9
2017-03-31T04:50:10.089Z,12.82
2017-03-31T04:51:10.107Z,12.82
2017-03-31T04:52:10.127Z,12.86
2017-03-31T04:53:10.138Z,12.82
2017-03-31T04:54:10.176Z,12.82
2017-03-31T04:55:10.185Z,12.8
2017-03-31T04:56:10.206Z,12.8
2017-03-31T04:57:10.213Z,12.8
2017-03-31T04:58:10.230Z,12.78
2017-03-31T04:59:10.254Z,12.78
2017-03-31T05:00:10.268Z,12.82
2017-03-31T05:01:10.295Z,12.8
2017-03-31T05:02:10.305Z,12.79
2017-03-31T05:03:10.330Z,12.82
2017-03-31T05:04:10.340Z,12.73
2017-03-31T05:05:10.357Z,12.82
2017-03-31T05:06:10.372Z,12.76
2017-03-31T05:07:10.193Z,12.82
2017-03-31T05:08:10.097Z,12.76
2017-03-31T05:09:10.432Z,12.79
2017-03-31T05:10:10.495Z,12.75
2017-03-31T05:11:10.527Z,12.76
2017-03-31T05:12:10.479Z,12.73
2017-03-31T05:13:10.501Z,12.7
2017-03-31T05:14:10.646Z,12.72
2017-03-31T05:15:10.537Z,12.68
2017-03-31T05:16:10.556Z,12.72
2017-03-31T05:17:10.573Z,12.76
2017-03-31T05:18:10.595Z,12.64
2017-03-31T05:19:10.628Z,12.73
2017-03-31T05:20:10.628Z,12.67
2017-03-31T05:21:10.645Z,12.73
2017-03-31T05:22:10.664Z,12.67
2017-03-31T05:23:10.683Z,12.68
2017-03-31T05:24:10.696Z,12.7
2017-03-31T05:25:10.714Z,12.68
2017-03-31T05:26:10.735Z,12.64
2017-03-31T05:27:10.755Z,12.7
2017-03-31T05:28:10.464Z,12.73
2017-03-31T05:29:10.798Z,12.65
2017-03-31T05:30:10.799Z,12.76
2017-03-31T05:31:10.825Z,12.76
2017-03-31T05:32:10.521Z,12.75
2017-03-31T05:33:10.859Z,12.64
2017-03-31T05:34:10.865Z,12.7
2017-03-31T05:35:10.892Z,12.7
2017-03-31T05:36:10.905Z,12.65
2017-03-31T05:37:10.928Z,12.7
2017-03-31T05:38:10.944Z,12.7
2017-03-31T05:39:10.959Z,12.67
2017-03-31T05:40:10.978Z,12.76
2017-03-31T05:41:10.994Z,12.7
2017-03-31T05:42:11.012Z,12.73
2017-03-31T05:43:11.036Z,12.79
2017-03-31T05:44:11.055Z,12.7
2017-03-31T05:45:11.064Z,12.76
2017-03-31T05:46:11.091Z,12.73
2017-03-31T05:47:11.099Z,12.72
2017-03-31T05:48:11.130Z,12.73
2017-03-31T05:49:11.152Z,12.65
2017-03-31T05:50:10.841Z,12.65
2017-03-31T05:51:11.167Z,12.68
2017-03-31T05:52:11.220Z,12.72
2017-03-31T05:53:11.209Z,12.76
2017-03-31T05:54:11.231Z,12.78
2017-03-31T05:55:10.933Z,12.8
2017-03-31T05:56:11.263Z,12.76
2017-03-31T05:57:11.278Z,12.78
2017-03-31T05:58:11.290Z,12.73
2017-03-31T05:59:11.314Z,12.76
2017-03-31T06:00:11.020Z,12.85
2017-03-31T06:01:11.351Z,12.82
2017-03-31T06:02:11.055Z,12.85
2017-03-31T06:03:11.388Z,12.85
2017-03-31T06:04:11.408Z,12.86
2017-03-31T06:05:11.449Z,12.95
2017-03-31T06:06:10.818Z,12.91
2017-03-31T06:07:11.481Z,12.93
2017-03-31T06:08:11.475Z,12.93
2017-03-31T06:09:11.497Z,12.93
2017-03-31T06:10:11.212Z,13.03
2017-03-31T06:11:11.547Z,13.01
2017-03-31T06:12:11.604Z,13.01
2017-03-31T06:13:11.597Z,12.94
2017-03-31T06:14:11.273Z,13.05
2017-03-31T06:15:11.595Z,13.04
2017-03-31T06:16:11.617Z,13.15
2017-03-31T06:17:11.315Z,13.11
2017-03-31T06:18:11.336Z,13.13
2017-03-31T06:19:11.666Z,13.18
2017-03-31T06:20:11.683Z,13.23
2017-03-31T06:21:11.706Z,13.19
2017-03-31T06:22:11.725Z,13.19
2017-03-31T06:23:11.740Z,13.22
2017-03-31T06:24:11.759Z,13.33
2017-03-31T06:25:11.768Z,13.27
2017-03-31T06:26:11.802Z,13.31
2017-03-31T06:27:11.810Z,13.33
2017-03-31T06:28:11.827Z,13.39
2017-03-31T06:29:11.842Z,13.31
2017-03-31T06:30:11.865Z,13.47
2017-03-31T06:31:11.890Z,13.37
2017-03-31T06:32:11.920Z,13.49
2017-03-31T06:33:11.920Z,13.56
2017-03-31T06:34:11.931Z,13.59
2017-03-31T06:35:11.954Z,13.63
2017-03-31T06:36:11.969Z,13.62
2017-03-31T06:37:11.990Z,13.71
2017-03-31T06:38:12.004Z,13.7
2017-03-31T06:39:12.022Z,13.72
2017-03-31T06:40:12.040Z,13.75
2017-03-31T06:41:12.059Z,13.79
2017-03-31T06:42:11.773Z,13.83
2017-03-31T06:43:12.314Z,13.9
2017-03-31T06:44:12.208Z,13.89
2017-03-31T06:45:12.336Z,13.9
2017-03-31T06:46:12.148Z,13.93
2017-03-31T06:47:12.361Z,13.96
2017-03-31T06:48:12.184Z,13.95
2017-03-31T06:49:12.370Z,14.04
2017-03-31T06:50:12.226Z,14.11
2017-03-31T06:51:12.239Z,14.14
2017-03-31T06:52:12.257Z,14.18
2017-03-31T06:53:12.286Z,14.25
2017-03-31T06:54:11.978Z,14.22
2017-03-31T06:55:12.308Z,14.26
2017-03-31T06:56:12.329Z,14.18
2017-03-31T06:57:12.349Z,14.25
2017-03-31T06:58:12.370Z,14.23
2017-03-31T06:59:12.381Z,14.37
2017-03-31T07:00:12.404Z,14.35
2017-03-31T07:01:12.419Z,14.43
2017-03-31T07:02:12.126Z,14.43
2017-03-31T07:03:12.456Z,14.53
2017-03-31T07:04:12.477Z,14.5
2017-03-31T07:05:12.493Z,14.54
2017-03-31T07:06:12.508Z,14.63
2017-03-31T07:07:12.548Z,14.66
2017-03-31T07:08:12.543Z,14.78
2017-03-31T07:09:12.566Z,14.78
2017-03-31T07:10:12.583Z,14.85
2017-03-31T07:11:12.603Z,14.79
2017-03-31T07:12:12.340Z,14.86
2017-03-31T07:13:12.639Z,15
2017-03-31T07:14:12.650Z,15.03
2017-03-31T07:15:12.673Z,14.97
2017-03-31T07:16:12.714Z,15.07
2017-03-31T07:17:12.396Z,15.09
2017-03-31T07:18:12.737Z,15.07
2017-03-31T07:19:12.746Z,15.21
2017-03-31T07:20:12.773Z,15.24
2017-03-31T07:21:12.779Z,15.25
2017-03-31T07:22:12.490Z,15.24
2017-03-31T07:23:12.821Z,15.39
2017-03-31T07:24:12.837Z,15.47
2017-03-31T07:25:12.857Z,15.43
2017-03-31T07:26:12.875Z,15.55
2017-03-31T07:27:12.895Z,15.52
2017-03-31T07:28:12.914Z,15.55
2017-03-31T07:29:12.932Z,15.65
2017-03-31T07:30:12.951Z,15.68
2017-03-31T07:31:12.969Z,15.72
2017-03-31T07:32:12.674Z,15.76
2017-03-31T07:33:13.004Z,15.82
2017-03-31T07:34:13.025Z,15.94
2017-03-31T07:35:13.043Z,15.95
2017-03-31T07:36:12.749Z,15.95
2017-03-31T07:37:13.082Z,15.95
2017-03-31T07:38:13.092Z,16.1
2017-03-31T07:39:13.120Z,16.08
2017-03-31T07:40:13.255Z,16.08
2017-03-31T07:41:13.157Z,16.15
2017-03-31T07:42:13.175Z,16.17
2017-03-31T07:43:12.954Z,16.29
2017-03-31T07:44:13.213Z,16.28
2017-03-31T07:45:13.235Z,16.38
2017-03-31T07:46:12.938Z,16.46
2017-03-31T07:47:13.269Z,16.42
2017-03-31T07:48:13.291Z,16.41
2017-03-31T07:49:13.426Z,16.56
2017-03-31T07:50:13.323Z,16.54
2017-03-31T07:51:13.033Z,16.65
2017-03-31T07:52:13.363Z,16.65
2017-03-31T07:53:13.087Z,16.6
2017-03-31T07:54:13.403Z,16.76
2017-03-31T07:55:13.469Z,16.84
2017-03-31T07:56:13.146Z,16.89
2017-03-31T07:57:13.149Z,16.91
2017-03-31T07:58:13.477Z,16.94
2017-03-31T07:59:13.582Z,16.99
2017-03-31T08:00:13.516Z,17.11
2017-03-31T08:01:13.537Z,17.11
2017-03-31T08:02:13.557Z,17.19
2017-03-31T08:03:13.580Z,17.26
2017-03-31T08:04:13.597Z,17.22
2017-03-31T08:05:13.609Z,17.29
2017-03-31T08:06:13.320Z,17.36
2017-03-31T08:07:13.651Z,17.31
2017-03-31T08:08:13.672Z,17.44
2017-03-31T08:09:13.692Z,17.52
2017-03-31T08:10:13.459Z,17.54
2017-03-31T08:11:13.531Z,17.64
2017-03-31T08:12:13.749Z,17.67
2017-03-31T08:13:13.769Z,17.64
2017-03-31T08:14:13.790Z,17.68
2017-03-31T08:15:13.908Z,17.72
2017-03-31T08:16:13.923Z,17.72
2017-03-31T08:17:13.846Z,17.83
2017-03-31T08:18:13.881Z,17.9
2017-03-31T08:19:13.577Z,17.98
2017-03-31T08:20:13.911Z,18.01
2017-03-31T08:21:13.619Z,18.01
2017-03-31T08:22:14.068Z,18.03
2017-03-31T08:23:13.977Z,18.07
2017-03-31T08:24:14.113Z,18.25
2017-03-31T08:25:14.006Z,18.29
2017-03-31T08:26:13.713Z,18.31
2017-03-31T08:27:14.045Z,18.25
2017-03-31T08:28:14.062Z,18.41
2017-03-31T08:29:14.141Z,18.43
2017-03-31T08:30:14.105Z,18.47
2017-03-31T08:31:14.127Z,18.47
2017-03-31T08:32:14.275Z,18.53
2017-03-31T08:33:14.164Z,18.53
2017-03-31T08:34:14.305Z,18.65
2017-03-31T08:35:14.206Z,18.56
2017-03-31T08:36:14.220Z,18.74
2017-03-31T08:37:14.243Z,18.66
2017-03-31T08:38:14.299Z,18.75
2017-03-31T08:39:14.282Z,18.78
2017-03-31T08:40:14.448Z,18.77
2017-03-31T08:41:14.014Z,18.8
2017-03-31T08:42:14.347Z,18.89
2017-03-31T08:43:14.375Z,18.95
2017-03-31T08:44:14.392Z,18.95
2017-03-31T08:45:14.457Z,18.93
2017-03-31T08:46:14.439Z,18.9
2017-03-31T08:47:14.453Z,18.98
2017-03-31T08:48:14.469Z,19.08
2017-03-31T08:49:14.500Z,19.22
2017-03-31T08:50:14.513Z,19.19
2017-03-31T08:51:14.530Z,19.27
2017-03-31T08:52:14.550Z,19.3
2017-03-31T08:53:14.572Z,19.31
2017-03-31T08:54:14.595Z,19.41
2017-03-31T08:55:14.313Z,19.47
2017-03-31T08:56:14.634Z,19.62
2017-03-31T08:57:14.657Z,19.47
2017-03-31T08:58:14.681Z,19.63
2017-03-31T08:59:14.695Z,19.64
2017-03-31T09:00:14.805Z,19.66
2017-03-31T09:01:14.792Z,19.69
2017-03-31T09:02:14.792Z,19.76
2017-03-31T09:03:14.802Z,19.79
2017-03-31T09:04:14.809Z,19.84
2017-03-31T09:05:14.927Z,19.91
2017-03-31T09:06:14.952Z,19.89
2017-03-31T09:07:14.962Z,19.96
2017-03-31T09:08:14.994Z,20.03
2017-03-31T09:09:15.003Z,20.03
2017-03-31T09:10:14.729Z,20.11
2017-03-31T09:11:15.027Z,20.1
2017-03-31T09:12:15.060Z,20.19
2017-03-31T09:13:15.067Z,20.26
2017-03-31T09:14:15.077Z,20.32
2017-03-31T09:15:15.087Z,20.32
2017-03-31T09:16:15.083Z,20.34
2017-03-31T09:17:15.093Z,20.47
2017-03-31T09:18:15.103Z,20.44
2017-03-31T09:19:15.117Z,20.43
2017-03-31T09:20:15.132Z,20.51
2017-03-31T09:21:15.164Z,20.5
2017-03-31T09:22:15.187Z,20.51
2017-03-31T09:23:14.959Z,20.48
2017-03-31T09:24:14.966Z,20.52
2017-03-31T09:25:14.968Z,20.69
2017-03-31T09:26:15.269Z,20.74
2017-03-31T09:27:14.981Z,20.72
2017-03-31T09:28:15.031Z,20.81
2017-03-31T09:29:15.335Z,20.92
2017-03-31T09:30:15.349Z,20.93
2017-03-31T09:31:15.371Z,20.9
2017-03-31T09:32:15.389Z,21.06
2017-03-31T09:33:15.417Z,21.02
2017-03-31T09:34:15.441Z,21.09
2017-03-31T09:35:15.464Z,21.12
2017-03-31T09:36:15.484Z,21.18
2017-03-31T09:37:15.507Z,21.22
2017-03-31T09:38:15.217Z,21.22
2017-03-31T09:39:15.558Z,21.24
2017-03-31T09:40:15.571Z,21.33
2017-03-31T09:41:15.592Z,21.32
2017-03-31T09:42:15.614Z,21.36
2017-03-31T09:43:15.637Z,21.36
2017-03-31T09:44:15.675Z,21.39
2017-03-31T09:45:15.686Z,21.46
2017-03-31T09:46:15.393Z,21.51
2017-03-31T09:47:15.414Z,21.58
2017-03-31T09:48:15.749Z,21.58
2017-03-31T09:49:15.771Z,21.69
2017-03-31T09:50:15.792Z,21.8
2017-03-31T09:51:15.816Z,21.82
2017-03-31T09:52:15.840Z,21.88
2017-03-31T09:53:15.857Z,21.83
2017-03-31T09:54:15.878Z,21.85
2017-03-31T09:55:15.905Z,22
2017-03-31T09:56:15.618Z,22
2017-03-31T09:57:15.951Z,22
2017-03-31T09:58:15.975Z,21.98
2017-03-31T09:59:15.996Z,22.02
2017-03-31T10:00:16.012Z,22.15
2017-03-31T10:01:16.045Z,22.13
2017-03-31T10:02:16.061Z,22.18
2017-03-31T10:03:16.096Z,22.26
2017-03-31T10:04:16.110Z,22.22
2017-03-31T10:05:16.131Z,22.32
2017-03-31T10:06:16.173Z,22.35
2017-03-31T10:07:15.865Z,22.43
2017-03-31T10:08:16.198Z,22.43
2017-03-31T10:09:16.227Z,22.43
2017-03-31T10:10:16.241Z,22.55
2017-03-31T10:11:16.339Z,22.55
2017-03-31T10:12:16.290Z,22.57
2017-03-31T10:13:16.307Z,22.62
2017-03-31T10:14:16.334Z,22.65
2017-03-31T10:15:16.358Z,22.69
2017-03-31T10:16:16.382Z,22.72
2017-03-31T10:17:16.404Z,22.83
2017-03-31T10:18:16.430Z,22.83
2017-03-31T10:19:16.452Z,22.94
2017-03-31T10:20:16.476Z,22.9
2017-03-31T10:21:16.495Z,22.94
2017-03-31T10:22:16.518Z,22.99
2017-03-31T10:23:16.540Z,23.09
2017-03-31T10:24:16.568Z,23.18
2017-03-31T10:25:16.609Z,23.1
2017-03-31T10:26:16.630Z,23.18
2017-03-31T10:27:16.640Z,23.27
2017-03-31T10:28:16.762Z,23.28
2017-03-31T10:29:16.771Z,23.41
2017-03-31T10:30:16.768Z,23.47
2017-03-31T10:31:16.779Z,23.54
2017-03-31T10:32:16.865Z,23.61
2017-03-31T10:33:16.798Z,23.71
2017-03-31T10:34:16.807Z,23.8
2017-03-31T10:35:16.941Z,23.78
2017-03-31T10:36:16.948Z,23.86
2017-03-31T10:37:16.983Z,23.87
2017-03-31T10:38:16.992Z,23.93
2017-03-31T10:39:17.050Z,24.01
2017-03-31T10:40:17.068Z,24.03
2017-03-31T10:41:17.196Z,24.2
2017-03-31T10:42:17.200Z,24.21
2017-03-31T10:43:17.212Z,24.29
2017-03-31T10:44:17.218Z,24.39
2017-03-31T10:45:17.229Z,24.45
2017-03-31T10:46:17.236Z,24.45
2017-03-31T10:47:17.237Z,24.4
2017-03-31T10:48:17.251Z,24.5
2017-03-31T10:49:17.254Z,24.45
2017-03-31T10:50:17.398Z,24.57
2017-03-31T10:51:17.407Z,24.63
2017-03-31T10:52:17.411Z,24.6
2017-03-31T10:53:17.418Z,24.68
2017-03-31T10:54:17.366Z,24.65
2017-03-31T10:55:17.373Z,24.78
2017-03-31T10:56:17.401Z,24.8
2017-03-31T10:57:17.408Z,24.84
2017-03-31T10:58:17.412Z,24.86
2017-03-31T10:59:17.423Z,24.85
2017-03-31T11:00:17.432Z,24.95
2017-03-31T11:01:17.456Z,24.96
2017-03-31T11:02:17.477Z,25.01
2017-03-31T11:03:17.502Z,25.08
2017-03-31T11:04:17.528Z,25.07
2017-03-31T11:05:17.550Z,25.18
2017-03-31T11:06:17.579Z,25.25
2017-03-31T11:07:17.636Z,25.31
2017-03-31T11:08:17.633Z,25.29
2017-03-31T11:09:17.657Z,25.29
2017-03-31T11:10:17.674Z,25.46
2017-03-31T11:11:17.701Z,25.54
2017-03-31T11:12:17.728Z,25.51
2017-03-31T11:13:17.753Z,25.53
2017-03-31T11:14:17.779Z,25.55
2017-03-31T11:15:17.803Z,25.51
2017-03-31T11:16:17.514Z,25.59
2017-03-31T11:17:17.855Z,25.68
2017-03-31T11:18:17.250Z,25.65
2017-03-31T11:19:17.907Z,25.73
2017-03-31T11:20:17.934Z,25.75
2017-03-31T11:21:17.959Z,25.8
2017-03-31T11:22:17.978Z,25.87
2017-03-31T11:23:18.007Z,25.87
2017-03-31T11:24:18.039Z,25.96
2017-03-31T11:25:18.057Z,25.95
2017-03-31T11:26:18.081Z,25.95
2017-03-31T11:27:18.108Z,26.05
2017-03-31T11:28:18.131Z,26.07
2017-03-31T11:29:18.159Z,26.09
2017-03-31T11:30:18.195Z,26.07
2017-03-31T11:31:18.211Z,26.22
2017-03-31T11:32:18.239Z,26.13
2017-03-31T11:33:18.265Z,26.21
2017-03-31T11:34:18.286Z,26.25
2017-03-31T11:35:18.318Z,26.21
2017-03-31T11:36:18.338Z,26.25
2017-03-31T11:37:18.366Z,26.25
2017-03-31T11:38:18.418Z,26.36
2017-03-31T11:39:18.412Z,26.41
2017-03-31T11:40:18.443Z,26.47
2017-03-31T11:41:18.469Z,26.51
2017-03-31T11:42:18.496Z,26.58
2017-03-31T11:43:18.521Z,26.62
2017-03-31T11:44:18.544Z,26.62
2017-03-31T11:45:18.575Z,26.71
2017-03-31T11:46:18.599Z,26.68
2017-03-31T11:47:18.627Z,26.74
2017-03-31T11:48:18.662Z,26.74
2017-03-31T11:49:18.676Z,26.8
2017-03-31T11:50:18.703Z,26.81
2017-03-31T11:51:18.736Z,26.85
2017-03-31T11:52:18.763Z,26.92
2017-03-31T11:53:18.787Z,26.9
2017-03-31T11:54:18.809Z,26.93
2017-03-31T11:55:18.839Z,27.02
2017-03-31T11:56:18.557Z,27
2017-03-31T11:57:18.901Z,27.08
2017-03-31T11:58:18.913Z,27.12
2017-03-31T11:59:18.945Z,27.18
2017-03-31T12:00:18.975Z,27.21
2017-03-31T12:01:19.117Z,27.29
2017-03-31T12:02:19.139Z,27.26
2017-03-31T12:03:19.139Z,27.36
2017-03-31T12:04:19.150Z,27.42
2017-03-31T12:05:19.103Z,27.35
2017-03-31T12:06:19.128Z,27.48
2017-03-31T12:07:19.163Z,27.52
2017-03-31T12:08:18.899Z,27.45
2017-03-31T12:09:19.208Z,27.49
2017-03-31T12:10:19.241Z,27.54
2017-03-31T12:11:19.270Z,27.6
2017-03-31T12:12:19.291Z,27.64
2017-03-31T12:13:19.321Z,27.64
2017-03-31T12:14:19.344Z,27.7
2017-03-31T12:15:19.372Z,27.7
2017-03-31T12:16:19.399Z,27.7
2017-03-31T12:17:19.423Z,27.8
2017-03-31T12:18:19.454Z,27.83
2017-03-31T12:19:19.618Z,27.82
2017-03-31T12:20:19.618Z,27.87
2017-03-31T12:21:19.631Z,27.92
2017-03-31T12:22:19.695Z,27.92
2017-03-31T12:23:19.694Z,27.9
2017-03-31T12:24:19.703Z,27.92
2017-03-31T12:25:19.711Z,28.02
2017-03-31T12:26:19.358Z,28.07
2017-03-31T12:27:19.892Z,28.02
2017-03-31T12:28:19.731Z,27.98
2017-03-31T12:29:19.855Z,28.07
2017-03-31T12:30:19.562Z,28.11
2017-03-31T12:31:19.595Z,28.07
2017-03-31T12:32:19.742Z,28.14
2017-03-31T12:33:19.903Z,28.17
2017-03-31T12:34:19.614Z,28.17
2017-03-31T12:35:19.680Z,28.22
2017-03-31T12:36:19.690Z,28.23
2017-03-31T12:37:19.974Z,28.25
2017-03-31T12:38:19.698Z,28.25
2017-03-31T12:39:20.030Z,28.25
2017-03-31T12:40:20.060Z,28.29
2017-03-31T12:41:20.087Z,28.32
2017-03-31T12:42:20.111Z,28.35
2017-03-31T12:43:19.572Z,28.38
2017-03-31T12:44:20.172Z,28.42
2017-03-31T12:45:19.890Z,28.32
2017-03-31T12:46:20.246Z,28.41
2017-03-31T12:47:19.939Z,28.41
2017-03-31T12:48:20.284Z,28.47
2017-03-31T12:49:20.310Z,28.41
2017-03-31T12:50:20.338Z,28.52
2017-03-31T12:51:20.367Z,28.52
2017-03-31T12:52:20.393Z,28.56
2017-03-31T12:53:20.422Z,28.59
2017-03-31T12:54:20.456Z,28.63
2017-03-31T12:55:20.491Z,28.62
2017-03-31T12:56:20.509Z,28.63
2017-03-31T12:57:20.537Z,28.72
2017-03-31T12:58:20.250Z,28.69
2017-03-31T12:59:20.615Z,28.76